createdAt,value
2018-07-28T00:01:08.961Z,59.24
2018-07-28T00:03:35.711Z,60.00
2018-07-28T00:06:02.500Z,59.53
2018-07-28T00:08:29.388Z,59.59
2018-07-28T00:10:56.173Z,59.63
2018-07-28T00:13:22.936Z,60.49
2018-07-28T00:15:49.684Z,60.19
2018-07-28T00:18:16.436Z,61.07
2018-07-28T00:20:43.248Z,61.06
2018-07-28T00:23:10.304Z,61.37
2018-07-28T00:25:37.502Z,60.88
2018-07-28T00:28:05.180Z,61.38
2018-07-28T00:30:31.917Z,61.07
2018-07-28T00:32:58.672Z,61.57
2018-07-28T00:35:25.425Z,61.89
2018-07-28T00:37:52.173Z,61.58
2018-07-28T00:40:18.932Z,62.19
2018-07-28T00:42:45.833Z,61.96
2018-07-28T00:45:12.580Z,62.18
2018-07-28T00:47:39.344Z,62.06
2018-07-28T00:50:06.648Z,62.52
2018-07-28T00:52:33.394Z,62.52
2018-07-28T00:55:00.146Z,62.97
2018-07-28T00:57:26.905Z,63.42
2018-07-28T00:59:53.664Z,63.61
2018-07-28T01:02:20.416Z,63.35
2018-07-28T01:04:47.180Z,64.05
2018-07-28T01:07:13.960Z,63.80
2018-07-28T01:09:40.715Z,64.30
2018-07-28T01:12:07.469Z,64.51
2018-07-28T01:14:34.229Z,64.91
2018-07-28T01:17:00.982Z,65.37
2018-07-28T01:19:27.736Z,65.83
2018-07-28T01:21:54.486Z,66.27
2018-07-28T01:24:21.240Z,66.26
2018-07-28T01:26:47.968Z,66.65
2018-07-28T01:29:15.886Z,66.28
2018-07-28T01:31:42.634Z,66.63
2018-07-28T01:34:09.419Z,66.95
2018-07-28T01:36:36.164Z,67.17
2018-07-28T01:39:05.052Z,67.45
2018-07-28T01:41:31.781Z,67.37
2018-07-28T01:43:58.548Z,68.09
2018-07-28T01:46:25.291Z,68.12
2018-07-28T01:48:52.033Z,67.49
2018-07-28T01:51:18.760Z,68.08
2018-07-28T01:53:45.588Z,68.22
2018-07-28T01:56:12.355Z,68.97
2018-07-28T01:58:39.113Z,68.56
2018-07-28T02:01:05.877Z,68.76
2018-07-28T02:06:22.954Z,69.17
2018-07-28T02:08:49.952Z,69.16
2018-07-28T02:11:16.725Z,69.63
2018-07-28T02:13:43.504Z,69.41
2018-07-28T02:16:10.525Z,69.94
2018-07-28T02:18:37.309Z,69.59
2018-07-28T02:21:04.077Z,70.56
2018-07-28T02:23:30.860Z,70.33
2018-07-28T02:25:57.621Z,70.25
2018-07-28T02:28:24.417Z,70.51
2018-07-28T02:30:51.472Z,70.98
2018-07-28T02:33:18.525Z,71.14
2018-07-28T02:35:45.305Z,70.76
2018-07-28T02:38:12.144Z,71.35
2018-07-28T02:40:38.917Z,70.78
2018-07-28T02:43:05.674Z,71.35
2018-07-28T02:45:32.503Z,71.66
2018-07-28T02:50:49.388Z,72.37
2018-07-28T02:53:16.152Z,72.26
2018-07-28T02:55:42.917Z,72.66
2018-07-28T02:58:09.675Z,72.66
2018-07-28T03:00:36.446Z,72.31
2018-07-28T03:03:03.201Z,72.89
2018-07-28T03:05:30.105Z,72.94
2018-07-28T03:07:56.879Z,72.30
2018-07-28T03:10:23.653Z,72.92
2018-07-28T03:12:50.426Z,72.52
2018-07-28T03:15:33.164Z,72.98
2018-07-28T03:18:01.634Z,73.68
2018-07-28T03:20:28.601Z,73.39
2018-07-28T03:22:55.348Z,73.66
2018-07-28T03:25:22.264Z,73.96
2018-07-28T03:27:49.048Z,74.05
2018-07-28T03:30:16.174Z,73.69
2018-07-28T03:32:42.956Z,73.96
2018-07-28T03:35:09.896Z,73.63
2018-07-28T03:37:36.662Z,74.54
2018-07-28T03:40:03.805Z,73.88
2018-07-28T03:42:30.672Z,74.62
2018-07-28T03:44:57.442Z,74.06
2018-07-28T03:47:24.183Z,74.15
2018-07-28T03:49:50.941Z,74.23
2018-07-28T03:52:17.757Z,74.50
2018-07-28T03:54:44.584Z,75.03
2018-07-28T03:57:11.337Z,74.62
2018-07-28T03:59:38.174Z,74.68
2018-07-28T04:02:04.927Z,75.02
2018-07-28T04:04:31.676Z,74.74
2018-07-28T04:06:58.408Z,75.18
2018-07-28T04:09:25.177Z,74.71
2018-07-28T04:11:51.940Z,74.67
2018-07-28T04:14:18.726Z,74.74
2018-07-28T04:16:45.492Z,74.94
2018-07-28T04:19:12.249Z,74.79
2018-07-28T04:24:29.657Z,75.78
2018-07-28T04:26:56.397Z,75.60
2018-07-28T04:29:23.173Z,75.68
2018-07-28T04:31:49.860Z,75.32
2018-07-28T04:34:16.604Z,75.13
2018-07-28T04:36:43.325Z,75.55
2018-07-28T04:39:11.756Z,75.61
2018-07-28T04:41:38.664Z,75.76
2018-07-28T04:44:05.427Z,75.17
2018-07-28T04:46:32.196Z,75.52
2018-07-28T04:48:58.924Z,75.47
2018-07-28T04:51:25.658Z,75.44
2018-07-28T04:53:52.393Z,75.15
2018-07-28T04:56:19.140Z,75.09
2018-07-28T04:58:45.868Z,75.50
2018-07-28T05:01:12.620Z,75.49
2018-07-28T05:03:39.374Z,74.78
2018-07-28T05:06:06.792Z,75.05
2018-07-28T05:08:33.666Z,75.62
2018-07-28T05:11:00.460Z,75.24
2018-07-28T05:13:27.212Z,75.16
2018-07-28T05:15:54.003Z,74.39
2018-07-28T05:18:20.697Z,75.21
2018-07-28T05:20:47.469Z,74.34
2018-07-28T05:23:14.220Z,75.01
2018-07-28T05:25:40.957Z,74.87
2018-07-28T05:28:07.695Z,74.53
2018-07-28T05:30:34.500Z,74.81
2018-07-28T05:33:01.238Z,73.83
2018-07-28T05:35:28.046Z,74.24
2018-07-28T05:37:54.831Z,73.98
2018-07-28T05:40:21.577Z,74.48
2018-07-28T05:42:48.401Z,73.72
2018-07-28T05:45:15.160Z,73.79
2018-07-28T05:47:41.894Z,74.22
2018-07-28T05:50:09.169Z,74.31
2018-07-28T05:52:35.897Z,73.25
2018-07-28T05:55:02.701Z,73.02
2018-07-28T05:57:29.446Z,72.52
2018-07-28T05:59:56.204Z,72.44
2018-07-28T06:02:23.066Z,72.70
2018-07-28T06:04:49.729Z,72.27
2018-07-28T06:07:16.489Z,72.08
2018-07-28T06:09:43.260Z,72.41
2018-07-28T06:12:10.034Z,71.47
2018-07-28T06:14:36.852Z,72.05
2018-07-28T06:17:03.909Z,71.55
2018-07-28T06:19:30.736Z,71.13
2018-07-28T06:21:57.510Z,70.28
2018-07-28T06:24:24.228Z,70.08
2018-07-28T06:26:50.981Z,69.87
2018-07-28T06:29:17.822Z,70.53
2018-07-28T06:31:44.625Z,69.96
2018-07-28T06:34:11.329Z,70.08
2018-07-28T06:36:38.141Z,69.18
2018-07-28T06:39:08.194Z,68.64
2018-07-28T06:41:34.996Z,68.53
2018-07-28T06:44:01.745Z,69.15
2018-07-28T06:46:28.517Z,68.73
2018-07-28T06:48:55.276Z,68.60
2018-07-28T06:51:22.061Z,68.23
2018-07-28T06:53:49.056Z,67.84
2018-07-28T06:56:15.806Z,67.01
2018-07-28T06:58:42.709Z,66.80
2018-07-28T07:01:09.596Z,66.58
2018-07-28T07:03:36.332Z,66.01
2018-07-28T07:06:03.929Z,66.16
2018-07-28T07:08:30.648Z,65.29
2018-07-28T07:10:57.412Z,64.88
2018-07-28T07:13:24.173Z,64.24
2018-07-28T07:18:42.353Z,63.53
2018-07-28T07:21:09.180Z,63.54
2018-07-28T07:23:35.956Z,63.33
2018-07-28T07:26:02.729Z,63.02
2018-07-28T07:28:29.473Z,62.43
2018-07-28T07:30:56.294Z,62.90
2018-07-28T07:33:23.054Z,63.48
2018-07-28T07:35:49.832Z,62.77
2018-07-28T07:38:16.564Z,62.46
2018-07-28T07:40:43.416Z,62.17
2018-07-28T07:43:10.200Z,61.09
2018-07-28T07:45:37.192Z,60.95
2018-07-28T07:48:04.001Z,60.59
2018-07-28T07:50:31.078Z,60.50
2018-07-28T07:52:57.816Z,60.96
2018-07-28T07:55:24.910Z,60.19
2018-07-28T07:57:51.692Z,60.37
2018-07-28T08:00:18.462Z,60.16
2018-07-28T08:02:45.249Z,58.60
2018-07-28T08:05:12.025Z,57.88
2018-07-28T08:07:38.782Z,58.88
2018-07-28T08:10:05.873Z,58.29
2018-07-28T08:12:32.695Z,55.46
2018-07-28T08:14:59.725Z,55.97
2018-07-28T08:17:26.469Z,55.00
2018-07-28T08:19:53.218Z,52.30
2018-07-28T08:22:19.972Z,52.72
2018-07-28T08:24:46.692Z,52.30
2018-07-28T08:27:13.429Z,50.59
2018-07-28T08:29:40.156Z,50.46
2018-07-28T08:32:06.897Z,50.15
2018-07-28T08:34:33.633Z,49.83
2018-07-28T08:37:00.366Z,49.14
2018-07-28T08:39:27.110Z,48.53
2018-07-28T08:41:53.865Z,48.73
2018-07-28T08:44:20.581Z,48.01
2018-07-28T08:46:47.313Z,46.83
2018-07-28T08:49:14.089Z,46.83
2018-07-28T08:51:40.837Z,47.03
2018-07-28T08:54:07.578Z,46.26
2018-07-28T08:56:34.341Z,45.92
2018-07-28T08:59:01.097Z,45.36
2018-07-28T09:01:27.832Z,44.99
2018-07-28T09:03:54.589Z,44.82
2018-07-28T09:06:21.569Z,44.96
2018-07-28T09:08:48.305Z,45.01
2018-07-28T09:11:15.264Z,43.87
2018-07-28T09:13:42.474Z,43.29
2018-07-28T09:16:09.360Z,43.52
2018-07-28T09:18:36.136Z,43.76
2018-07-28T09:21:02.920Z,43.51
2018-07-28T09:23:29.753Z,43.47
2018-07-28T09:25:56.412Z,43.77
2018-07-28T09:28:23.165Z,44.36
2018-07-28T09:30:49.997Z,44.29
2018-07-28T09:33:16.741Z,43.42
2018-07-28T09:35:43.452Z,43.83
2018-07-28T09:38:10.197Z,43.96
2018-07-28T09:40:36.956Z,44.15
2018-07-28T09:43:03.864Z,44.48
2018-07-28T09:45:30.657Z,44.84
2018-07-28T09:47:57.397Z,44.80
2018-07-28T09:50:24.148Z,43.84
2018-07-28T09:52:50.936Z,43.38
2018-07-28T09:55:17.666Z,42.36
2018-07-28T09:57:44.524Z,41.91
2018-07-28T10:00:14.376Z,42.02
2018-07-28T10:02:41.145Z,41.28
2018-07-28T10:05:07.948Z,41.08
2018-07-28T10:07:34.714Z,41.26
2018-07-28T10:10:01.434Z,40.38
2018-07-28T10:12:28.161Z,40.47
2018-07-28T10:14:55.317Z,39.63
2018-07-28T10:17:22.316Z,40.00
2018-07-28T10:22:40.624Z,39.48
2018-07-28T10:25:07.357Z,39.49
2018-07-28T10:27:34.323Z,39.35
2018-07-28T10:30:01.273Z,39.32
2018-07-28T10:32:28.034Z,38.90
2018-07-28T10:34:54.754Z,39.70
2018-07-28T10:37:21.517Z,38.78
2018-07-28T10:39:48.253Z,39.45
2018-07-28T10:42:15.020Z,39.52
2018-07-28T10:44:41.786Z,39.05
2018-07-28T10:47:08.520Z,39.25
2018-07-28T10:49:35.246Z,39.04
2018-07-28T10:52:01.992Z,38.55
2018-07-28T10:54:28.720Z,38.67
2018-07-28T10:56:55.473Z,38.73
2018-07-28T10:59:22.214Z,38.91
2018-07-28T11:01:48.972Z,38.85
2018-07-28T11:04:15.723Z,37.14
2018-07-28T11:09:32.469Z,37.70
2018-07-28T11:11:59.228Z,37.37
2018-07-28T11:14:25.984Z,37.68
2018-07-28T11:16:52.713Z,37.71
2018-07-28T11:19:19.462Z,36.66
2018-07-28T11:21:46.193Z,37.05
2018-07-28T11:24:13.273Z,35.23
2018-07-28T11:26:39.992Z,36.02
2018-07-28T11:29:06.738Z,35.33
2018-07-28T11:31:45.317Z,35.84
2018-07-28T11:34:23.575Z,34.92
2018-07-28T11:37:01.905Z,34.62
2018-07-28T11:39:40.417Z,34.11
2018-07-28T11:42:18.869Z,35.12
2018-07-28T11:45:22.664Z,34.33
2018-07-28T11:47:49.425Z,34.92
2018-07-28T11:50:16.157Z,34.02
2018-07-28T11:52:42.902Z,33.85
2018-07-28T11:55:09.829Z,34.89
2018-07-28T11:57:36.588Z,34.03
2018-07-28T12:00:04.569Z,34.24
2018-07-28T12:02:31.301Z,33.50
2018-07-28T12:04:58.018Z,34.59
2018-07-28T12:07:24.757Z,35.03
2018-07-28T12:09:51.504Z,35.41
2018-07-28T12:12:18.303Z,34.57
2018-07-28T12:14:45.072Z,35.21
2018-07-28T12:17:11.805Z,35.15
2018-07-28T12:19:38.881Z,35.22
2018-07-28T12:22:05.833Z,35.18
2018-07-28T12:24:32.558Z,35.26
2018-07-28T12:26:59.308Z,35.51
2018-07-28T12:29:26.065Z,36.19
2018-07-28T12:31:52.824Z,35.73
2018-07-28T12:34:19.764Z,34.96
2018-07-28T12:36:46.489Z,35.25
2018-07-28T12:39:13.385Z,35.71
2018-07-28T12:41:40.127Z,35.39
2018-07-28T12:44:07.004Z,34.29
2018-07-28T12:46:33.744Z,34.37
2018-07-28T12:49:00.969Z,34.85
2018-07-28T12:51:28.065Z,34.54
2018-07-28T12:53:54.800Z,34.42
2018-07-28T12:56:21.629Z,33.77
2018-07-28T12:58:48.384Z,34.17
2018-07-28T13:01:15.109Z,34.08
2018-07-28T13:03:41.840Z,35.30
2018-07-28T13:06:08.565Z,35.31
2018-07-28T13:08:35.396Z,35.10
2018-07-28T13:11:02.152Z,35.76
2018-07-28T13:13:28.905Z,36.12
2018-07-28T13:15:55.688Z,36.42
2018-07-28T13:18:22.468Z,36.93
2018-07-28T13:20:49.208Z,36.50
2018-07-28T13:23:15.976Z,36.61
2018-07-28T13:25:42.729Z,37.38
2018-07-28T13:28:09.460Z,36.93
2018-07-28T13:30:36.212Z,39.02
2018-07-28T13:33:02.956Z,41.75
2018-07-28T13:35:29.842Z,44.07
2018-07-28T13:37:56.469Z,47.15
2018-07-28T13:40:23.198Z,50.81
2018-07-28T13:42:49.944Z,56.84
2018-07-28T13:45:16.664Z,61.41
2018-07-28T13:47:43.479Z,64.34
2018-07-28T13:50:10.208Z,69.31
2018-07-28T13:52:37.088Z,69.42
2018-07-28T13:55:03.834Z,70.23
2018-07-28T13:57:30.553Z,69.67
2018-07-28T13:59:57.297Z,69.53
2018-07-28T14:02:24.025Z,69.09
2018-07-28T14:04:50.861Z,69.65
2018-07-28T14:07:17.906Z,70.12
2018-07-28T14:09:44.737Z,71.44
2018-07-28T14:12:11.630Z,71.96
2018-07-28T14:14:38.389Z,72.28
2018-07-28T14:17:05.201Z,72.82
2018-07-28T14:19:32.149Z,72.53
2018-07-28T14:21:58.948Z,72.91
2018-07-28T14:24:25.857Z,72.92
2018-07-28T14:26:52.671Z,73.24
2018-07-28T14:29:19.696Z,73.94
2018-07-28T14:31:46.525Z,74.13
2018-07-28T14:34:13.269Z,74.70
2018-07-28T14:36:56.804Z,75.09
2018-07-28T14:39:23.593Z,74.78
2018-07-28T14:41:50.340Z,75.34
2018-07-28T14:44:17.154Z,75.31
2018-07-28T14:46:43.965Z,75.14
2018-07-28T14:49:10.713Z,75.34
2018-07-28T14:51:37.441Z,76.22
2018-07-28T14:54:04.197Z,76.27
2018-07-28T14:56:30.944Z,76.81
2018-07-28T14:58:57.736Z,76.67
2018-07-28T15:01:24.581Z,76.02
2018-07-28T15:03:51.242Z,76.46
2018-07-28T15:06:18.500Z,77.51
2018-07-28T15:08:45.216Z,76.84
2018-07-28T15:11:11.955Z,77.08
2018-07-28T15:13:38.725Z,77.57
2018-07-28T15:16:05.713Z,77.64
2018-07-28T15:18:32.464Z,77.00
2018-07-28T15:20:59.201Z,77.57
2018-07-28T15:23:26.044Z,77.73
2018-07-28T15:25:52.800Z,77.23
2018-07-28T15:28:19.539Z,76.40
2018-07-28T15:30:46.276Z,76.87
2018-07-28T15:33:13.031Z,76.99
2018-07-28T15:35:39.765Z,76.17
2018-07-28T15:38:06.543Z,76.58
2018-07-28T15:40:33.591Z,76.06
2018-07-28T15:43:00.340Z,76.44
2018-07-28T15:45:27.268Z,76.65
2018-07-28T15:47:54.204Z,76.52
2018-07-28T15:50:20.957Z,76.87
2018-07-28T15:52:47.690Z,77.15
2018-07-28T15:55:14.528Z,77.01
2018-07-28T15:57:41.527Z,76.86
2018-07-28T16:00:08.301Z,76.31
2018-07-28T16:02:35.088Z,76.08
2018-07-28T16:05:01.860Z,76.53
2018-07-28T16:07:28.647Z,75.33
2018-07-28T16:09:55.425Z,75.78
2018-07-28T16:12:22.155Z,75.64
2018-07-28T16:14:48.920Z,75.27
2018-07-28T16:17:15.680Z,75.37
2018-07-28T16:19:42.419Z,75.96
2018-07-28T16:22:09.209Z,75.16
2018-07-28T16:24:35.952Z,75.02
2018-07-28T16:27:02.709Z,74.91
2018-07-28T16:29:29.465Z,74.74
2018-07-28T16:31:58.796Z,75.20
2018-07-28T16:34:25.534Z,75.03
2018-07-28T16:36:52.264Z,76.02
2018-07-28T16:39:19.005Z,75.83
2018-07-28T16:41:45.735Z,76.13
2018-07-28T16:44:12.527Z,76.86
2018-07-28T16:46:39.269Z,77.04
2018-07-28T16:49:06.796Z,76.58
2018-07-28T16:51:33.517Z,77.45
2018-07-28T16:54:00.345Z,78.00
2018-07-28T16:56:27.073Z,77.95
2018-07-28T16:58:54.064Z,78.13
2018-07-28T17:01:20.733Z,78.56
2018-07-28T17:03:47.500Z,77.91
2018-07-28T17:06:14.258Z,77.38
2018-07-28T17:08:41.056Z,77.52
2018-07-28T17:11:07.933Z,77.87
2018-07-28T17:13:34.724Z,77.19
2018-07-28T17:16:01.728Z,77.48
2018-07-28T17:18:28.607Z,77.76
2018-07-28T17:20:56.109Z,77.23
2018-07-28T17:23:23.038Z,76.16
2018-07-28T17:25:49.780Z,76.16
2018-07-28T17:28:16.530Z,75.87
2018-07-28T17:30:43.298Z,74.61
2018-07-28T17:33:10.189Z,75.06
2018-07-28T17:35:37.040Z,75.59
2018-07-28T17:38:03.839Z,74.64
2018-07-28T17:43:21.620Z,75.45
2018-07-28T17:45:48.425Z,76.17
2018-07-28T17:48:15.757Z,75.92
2018-07-28T17:50:42.627Z,76.28
2018-07-28T17:53:09.469Z,77.12
2018-07-28T17:55:36.339Z,75.91
2018-07-28T17:58:03.143Z,76.33
2018-07-28T18:00:29.878Z,77.18
2018-07-28T18:14:30.350Z,78.02
2018-07-28T18:16:57.437Z,79.01
2018-07-28T18:19:24.513Z,79.88
2018-07-28T18:21:51.525Z,79.46
2018-07-28T18:24:18.496Z,80.13
2018-07-28T18:26:45.549Z,80.15
2018-07-28T18:29:12.549Z,80.45
2018-07-28T18:31:39.601Z,79.89
2018-07-28T18:34:06.903Z,80.65
2018-07-28T18:36:33.914Z,80.15
2018-07-28T18:39:01.389Z,81.31
2018-07-28T18:41:28.484Z,81.55
2018-07-28T18:43:55.549Z,81.89
2018-07-28T18:46:22.629Z,81.27
2018-07-28T18:48:49.633Z,82.16
2018-07-28T18:51:16.695Z,82.64
2018-07-28T18:53:43.693Z,82.84
2018-07-28T18:56:10.669Z,82.24
2018-07-28T18:58:37.648Z,82.55
2018-07-28T19:01:04.776Z,82.34
2018-07-28T19:03:31.810Z,81.81
2018-07-28T19:05:58.781Z,81.56
2018-07-28T19:08:25.785Z,82.32
2018-07-28T19:10:53.429Z,82.43
2018-07-28T19:13:26.438Z,82.38
2018-07-28T19:15:53.496Z,82.80
2018-07-28T19:18:26.230Z,82.00
2018-07-28T19:20:53.517Z,82.62
2018-07-28T19:23:26.185Z,82.10
2018-07-28T19:25:53.149Z,83.14
2018-07-28T19:28:25.925Z,82.46
2018-07-28T19:30:52.905Z,82.53
2018-07-28T19:33:19.925Z,83.00
2018-07-28T19:35:52.549Z,83.12
2018-07-28T19:38:19.589Z,84.17
2018-07-28T19:40:46.538Z,83.29
2018-07-28T19:43:13.551Z,83.70
2018-07-28T19:45:40.741Z,83.30
2018-07-28T19:48:08.037Z,83.22
2018-07-28T19:50:35.189Z,82.51
2018-07-28T19:53:02.709Z,82.34
2018-07-28T19:55:29.694Z,79.58
2018-07-28T19:57:56.709Z,79.30
2018-07-28T20:00:23.682Z,77.89
2018-07-28T20:02:50.714Z,76.77
2018-07-28T20:05:17.763Z,77.36
2018-07-28T20:07:44.808Z,77.51
2018-07-28T20:10:11.848Z,78.49
2018-07-28T20:12:39.012Z,78.57
2018-07-28T20:15:05.973Z,77.91
2018-07-28T20:17:32.921Z,76.95
2018-07-28T20:20:00.153Z,77.82
2018-07-28T20:22:27.117Z,77.99
2018-07-28T20:24:54.241Z,77.42
2018-07-28T20:27:21.185Z,77.45
2018-07-28T20:29:48.176Z,78.17
2018-07-28T20:32:15.142Z,78.08
2018-07-28T20:34:42.287Z,78.01
2018-07-28T20:37:09.314Z,79.14
2018-07-28T20:39:36.537Z,78.95
2018-07-28T20:42:03.937Z,79.17
2018-07-28T20:44:30.979Z,78.45
2018-07-28T20:46:58.016Z,79.16
2018-07-28T20:49:24.993Z,78.62
2018-07-28T20:51:52.009Z,79.21
2018-07-28T20:54:19.183Z,79.38
2018-07-28T20:56:46.270Z,78.67
2018-07-28T20:59:13.456Z,78.27
2018-07-28T21:01:40.421Z,78.67
2018-07-28T21:04:07.392Z,78.17
2018-07-28T21:06:34.383Z,77.89
2018-07-28T21:09:01.342Z,77.77
2018-07-28T21:11:28.329Z,78.00
2018-07-28T21:13:55.377Z,77.55
2018-07-28T21:16:22.670Z,77.67
2018-07-28T21:18:49.685Z,77.37
2018-07-28T21:21:16.778Z,77.25
2018-07-28T21:23:43.765Z,77.06
2018-07-28T21:26:10.749Z,77.80
2018-07-28T21:28:37.774Z,77.32
2018-07-28T21:31:04.944Z,77.34
2018-07-28T21:33:32.086Z,77.50
2018-07-28T21:35:59.117Z,77.74
2018-07-28T21:38:26.077Z,77.90
2018-07-28T21:40:53.115Z,77.67
2018-07-28T21:43:20.121Z,78.02
2018-07-28T21:45:47.125Z,77.99
2018-07-28T21:48:14.121Z,77.45
2018-07-28T21:50:41.153Z,78.34
2018-07-28T21:53:08.162Z,77.57
2018-07-28T21:55:35.355Z,77.99
2018-07-28T21:58:02.473Z,78.05
2018-07-28T22:00:34.069Z,78.78
2018-07-28T22:03:01.058Z,78.72
2018-07-28T22:05:28.462Z,79.15
2018-07-28T22:07:55.422Z,78.39
2018-07-28T22:10:22.418Z,78.94
2018-07-28T22:12:49.404Z,78.65
2018-07-28T22:15:16.473Z,78.81
2018-07-28T22:17:50.326Z,78.94
2018-07-28T22:20:17.398Z,78.74
2018-07-28T22:22:44.369Z,79.16
2018-07-28T22:25:11.333Z,79.56
2018-07-28T22:27:38.361Z,79.38
2018-07-28T22:30:05.902Z,79.79
2018-07-28T22:32:32.905Z,79.84
2018-07-28T22:34:59.881Z,80.13
2018-07-28T22:37:27.014Z,80.53
2018-07-28T22:39:53.973Z,80.16
2018-07-28T22:42:31.213Z,80.28
2018-07-28T22:44:58.375Z,80.61
2018-07-28T22:47:25.357Z,80.58
2018-07-28T22:49:52.333Z,80.21
2018-07-28T22:52:19.557Z,80.65
2018-07-28T22:54:46.529Z,80.88
2018-07-28T22:57:13.509Z,80.31
2018-07-28T22:59:40.477Z,80.56
2018-07-28T23:02:07.461Z,80.53
2018-07-28T23:04:34.472Z,81.08
2018-07-28T23:07:01.616Z,81.01
2018-07-28T23:09:28.601Z,81.02
2018-07-28T23:11:55.618Z,81.21
2018-07-28T23:14:22.644Z,81.64
2018-07-28T23:16:50.061Z,81.49
2018-07-28T23:19:17.045Z,81.70
2018-07-28T23:21:44.053Z,81.08
2018-07-28T23:24:11.025Z,81.70
2018-07-28T23:26:38.046Z,81.69
2018-07-28T23:29:05.045Z,81.52
2018-07-28T23:31:32.013Z,81.55
2018-07-28T23:33:59.148Z,82.00
2018-07-28T23:36:26.157Z,82.05
2018-07-28T23:38:53.145Z,82.07
2018-07-28T23:41:20.133Z,81.30
2018-07-28T23:43:47.110Z,81.38
2018-07-28T23:46:14.125Z,81.33
2018-07-28T23:48:41.129Z,81.64
2018-07-28T23:51:08.117Z,81.74
2018-07-28T23:53:35.109Z,81.58
2018-07-28T23:56:02.145Z,82.11
2018-07-28T23:58:29.147Z,81.57
